Time;durP1;ratioP1;P1;durP2;ratioP2;P2;SDS_P1;SDS_P2;PMS_P1;PMS_P2;Temp;Humidity;BMP_temperature;BMP_pressure;BME280_temperature;BME280_humidity;BME280_pressure;Samples;Min_cycle;Max_cycle;Signal;HPM_P1;HPM_P2
2022/11/02 00:01:39;;;;;;;2.00;1.17;;;16.70;72.70;;;;;;5006045;28;20938;-70
2022/11/02 00:04:08;;;;;;;2.20;1.30;;;16.70;72.80;;;;;;5000361;28;20978;-70
2022/11/02 00:06:36;;;;;;;3.87;1.40;;;16.70;72.60;;;;;;5003322;28;20508;-70
2022/11/02 00:09:05;;;;;;;3.23;1.10;;;16.70;73.00;;;;;;5007283;28;20996;-70
2022/11/02 00:11:36;;;;;;;3.00;1.20;;;16.70;72.60;;;;;;5005261;28;20462;-70
2022/11/02 00:14:05;;;;;;;4.57;2.07;;;16.70;72.70;;;;;;5006678;28;20971;-70
2022/11/02 00:16:33;;;;;;;2.70;1.50;;;16.70;72.90;;;;;;5008723;28;20479;-70
2022/11/02 00:19:04;;;;;;;2.67;1.37;;;16.70;72.30;;;;;;5009720;28;20484;-70
2022/11/02 00:21:32;;;;;;;2.23;1.30;;;16.70;72.60;;;;;;5006923;28;20967;-70
2022/11/02 00:24:02;;;;;;;4.07;1.03;;;16.70;72.70;;;;;;5009241;28;20861;-70
2022/11/02 00:26:32;;;;;;;3.60;1.23;;;16.70;72.50;;;;;;5007555;28;20460;-70
2022/11/02 00:29:04;;;;;;;3.40;1.03;;;16.70;72.40;;;;;;5007161;28;20488;-70
2022/11/02 00:31:32;;;;;;;4.07;1.17;;;16.70;73.00;;;;;;5010132;28;20463;-70
2022/11/02 00:34:00;;;;;;;2.53;1.37;;;16.70;72.60;;;;;;5004763;28;20542;-70
2022/11/02 00:36:30;;;;;;;2.00;1.23;;;16.70;72.90;;;;;;5002696;28;20507;-70
2022/11/02 00:38:58;;;;;;;4.13;0.90;;;16.70;73.10;;;;;;5008226;28;20484;-70
2022/11/02 00:44:17;;;;;;;3.00;1.23;;;16.70;72.90;;;;;;5061188;28;20467;-51
2022/11/02 00:46:46;;;;;;;2.10;1.20;;;16.70;72.80;;;;;;5033545;28;20471;-51
2022/11/02 00:49:14;;;;;;;1.63;1.10;;;16.70;72.80;;;;;;5032526;28;20419;-51
2022/11/02 00:51:43;;;;;;;2.80;0.97;;;16.70;72.20;;;;;;5047099;28;20820;-51
2022/11/02 00:54:15;;;;;;;2.80;0.90;;;16.70;72.50;;;;;;5059470;28;20438;-52
2022/11/02 00:56:43;;;;;;;3.13;1.13;;;16.70;72.30;;;;;;5055310;28;20469;-50
2022/11/02 00:59:12;;;;;;;1.67;0.97;;;16.70;72.40;;;;;;5084985;28;20810;-52
2022/11/02 01:01:46;;;;;;;4.93;1.13;;;16.70;72.40;;;;;;5058588;28;20461;-50
2022/11/02 01:04:15;;;;;;;1.40;0.80;;;16.70;72.30;;;;;;5060932;28;20437;-51
2022/11/02 01:06:44;;;;;;;4.47;1.40;;;16.60;72.10;;;;;;5052245;28;20751;-50
2022/11/02 01:09:15;;;;;;;2.80;1.30;;;16.60;72.40;;;;;;5056246;28;20469;-51
2022/11/02 01:11:44;;;;;;;2.23;1.33;;;16.60;72.70;;;;;;5085182;28;20454;-53
2022/11/02 01:14:15;;;;;;;2.20;0.80;;;16.70;72.60;;;;;;5050001;28;20446;-51
2022/11/02 01:16:45;;;;;;;1.83;1.03;;;16.60;72.50;;;;;;5090649;28;20440;-51
2022/11/02 01:19:14;;;;;;;2.57;1.30;;;16.60;72.60;;;;;;5060665;28;20464;-52
2022/11/02 01:21:42;;;;;;;3.40;1.30;;;16.60;72.60;;;;;;5062374;28;20870;-51
2022/11/02 01:24:11;;;;;;;4.50;1.27;;;16.60;72.60;;;;;;5056416;28;20443;-50
2022/11/02 01:26:39;;;;;;;3.33;0.80;;;16.60;72.20;;;;;;5060201;28;21002;-50
2022/11/02 01:29:08;;;;;;;2.30;0.93;;;16.60;72.60;;;;;;5050804;28;20470;-53
2022/11/02 01:31:36;;;;;;;2.23;0.87;;;16.60;72.50;;;;;;5059771;28;20493;-51
2022/11/02 01:34:06;;;;;;;6.00;1.27;;;16.60;72.80;;;;;;5085892;28;20840;-51
2022/11/02 01:36:35;;;;;;;3.57;1.23;;;16.60;72.10;;;;;;5053172;28;20438;-52
2022/11/02 01:39:04;;;;;;;2.50;0.97;;;16.60;72.70;;;;;;5052567;28;20523;-49
2022/11/02 01:41:32;;;;;;;4.00;0.83;;;16.60;72.60;;;;;;5092570;28;20457;-52
2022/11/02 01:44:03;;;;;;;2.27;1.23;;;16.60;72.80;;;;;;5043309;28;20451;-50
2022/11/02 01:46:37;;;;;;;5.13;1.50;;;16.60;72.40;;;;;;5048083;28;20435;-51
2022/11/02 01:49:11;;;;;;;1.10;0.80;;;16.60;72.20;;;;;;5048665;28;20925;-51
2022/11/02 01:51:44;;;;;;;4.40;1.00;;;16.60;72.90;;;;;;5043475;28;20509;-50
2022/11/02 01:54:16;;;;;;;4.03;1.23;;;16.60;72.60;;;;;;5032269;28;20935;-51
2022/11/02 01:56:49;;;;;;;2.40;1.00;;;16.60;72.50;;;;;;5049971;28;20775;-51
2022/11/02 01:59:23;;;;;;;4.23;1.40;;;16.60;72.50;;;;;;5067157;28;20807;-52
2022/11/02 02:01:52;;;;;;;1.63;1.10;;;16.60;72.30;;;;;;5047751;28;20489;-51
2022/11/02 02:04:23;;;;;;;3.30;1.00;;;16.60;72.60;;;;;;5054138;28;20438;-51
2022/11/02 02:06:55;;;;;;;3.00;1.10;;;16.60;72.70;;;;;;5050908;28;20549;-50
2022/11/02 02:09:25;;;;;;;6.93;0.90;;;16.60;72.40;;;;;;5065221;28;20435;-51
2022/11/02 02:11:53;;;;;;;5.23;1.13;;;16.50;72.90;;;;;;5031541;28;20451;-49
2022/11/02 02:14:23;;;;;;;1.70;0.93;;;16.50;72.50;;;;;;5047210;28;20479;-50
2022/11/02 02:17:22;;;;;;;2.20;1.50;;;16.50;72.10;;;;;;5050453;28;20473;-51
2022/11/02 02:20:01;;;;;;;2.40;1.37;;;16.50;72.50;;;;;;5048320;28;20458;-53
2022/11/02 02:23:02;;;;;;;2.03;0.70;;;16.60;72.60;;;;;;5062940;28;20840;-50
2022/11/02 02:26:05;;;;;;;4.63;1.17;;;16.50;72.70;;;;;;5050547;28;20455;-51
2022/11/02 02:28:42;;;;;;;2.13;0.83;;;16.50;72.60;;;;;;5063357;28;20471;-51
2022/11/02 02:31:16;;;;;;;6.83;1.20;;;16.50;73.10;;;;;;5064695;28;20482;-49
2022/11/02 02:33:50;;;;;;;2.50;1.13;;;16.50;72.60;;;;;;5052079;28;20459;-50
2022/11/02 02:36:24;;;;;;;2.40;1.07;;;16.50;72.60;;;;;;5056730;28;20963;-52
2022/11/02 02:39:00;;;;;;;2.10;0.87;;;16.60;72.20;;;;;;5068383;28;20473;-52
2022/11/02 02:41:37;;;;;;;2.00;0.80;;;16.50;72.30;;;;;;5050992;28;20845;-51
2022/11/02 02:44:10;;;;;;;3.60;1.23;;;16.50;72.10;;;;;;5080876;28;20534;-50
2022/11/02 02:46:47;;;;;;;1.53;0.90;;;16.50;72.60;;;;;;5052627;28;20478;-52
2022/11/02 02:49:25;;;;;;;3.10;0.90;;;16.50;72.30;;;;;;5048228;28;20497;-51
2022/11/02 02:51:57;;;;;;;2.47;0.60;;;16.50;72.10;;;;;;5048879;28;20482;-52
2022/11/02 02:54:31;;;;;;;2.80;1.13;;;16.50;72.60;;;;;;5085415;28;20435;-52
2022/11/02 02:57:06;;;;;;;3.13;1.00;;;16.50;72.60;;;;;;5057129;28;20443;-50
2022/11/02 02:59:40;;;;;;;6.03;1.33;;;16.50;72.90;;;;;;5053731;28;20469;-50
2022/11/02 03:02:17;;;;;;;2.70;1.10;;;16.50;72.50;;;;;;5032996;28;20470;-51
2022/11/02 03:04:46;;;;;;;5.37;1.53;;;16.50;72.40;;;;;;5049806;28;20443;-52
2022/11/02 03:07:20;;;;;;;1.73;1.10;;;16.50;73.10;;;;;;5050855;28;20475;-50
2022/11/02 03:10:00;;;;;;;2.20;0.90;;;16.50;72.50;;;;;;5067709;28;20971;-50
2022/11/02 03:12:39;;;;;;;2.60;1.30;;;16.50;72.50;;;;;;5046064;28;20474;-49
2022/11/02 03:15:16;;;;;;;2.03;1.00;;;16.50;72.70;;;;;;5044404;28;20469;-50
2022/11/02 03:17:53;;;;;;;2.87;1.10;;;16.50;72.50;;;;;;5053736;28;20486;-50
2022/11/02 03:20:26;;;;;;;2.13;1.10;;;16.50;72.40;;;;;;5084561;28;20611;-51
2022/11/02 03:23:08;;;;;;;2.63;1.17;;;16.50;72.30;;;;;;5049432;28;20533;-50
2022/11/02 03:25:44;;;;;;;0.93;0.80;;;16.50;72.50;;;;;;5067773;28;20454;-51
2022/11/02 03:28:18;;;;;;;2.27;2.07;;;16.50;72.80;;;;;;5039918;28;20477;-51
2022/11/02 03:31:00;;;;;;;3.03;1.30;;;16.50;73.00;;;;;;5052621;28;20435;-51
2022/11/02 03:33:33;;;;;;;1.70;1.10;;;16.40;72.70;;;;;;5054108;28;20983;-50
2022/11/02 03:36:07;;;;;;;1.90;0.90;;;16.40;72.20;;;;;;5059151;28;20472;-51
2022/11/02 03:38:43;;;;;;;2.80;0.73;;;16.40;72.20;;;;;;5073627;28;20950;-55
2022/11/02 03:41:15;;;;;;;3.43;0.90;;;16.40;72.60;;;;;;5050653;28;20463;-51
2022/11/02 03:43:46;;;;;;;2.60;0.93;;;16.40;72.30;;;;;;5044807;28;20455;-53
2022/11/02 03:46:18;;;;;;;3.30;1.30;;;16.40;72.50;;;;;;5064526;28;20443;-52
2022/11/02 03:48:51;;;;;;;2.20;0.93;;;16.40;72.50;;;;;;5039833;28;21045;-53
2022/11/02 03:51:22;;;;;;;1.57;1.00;;;16.40;72.40;;;;;;5035287;28;20464;-51
2022/11/02 03:53:56;;;;;;;1.63;0.87;;;16.40;72.50;;;;;;5042841;28;20488;-51
2022/11/02 03:56:31;;;;;;;4.40;0.97;;;16.40;72.50;;;;;;5044719;28;20446;-51
2022/11/02 03:59:00;;;;;;;3.00;1.47;;;16.40;72.40;;;;;;5035634;28;20493;-51
2022/11/02 04:01:32;;;;;;;1.23;1.07;;;16.40;72.30;;;;;;5042036;28;20475;-52
2022/11/02 04:04:04;;;;;;;1.47;0.80;;;16.40;72.30;;;;;;5038223;28;20537;-51
2022/11/02 04:06:34;;;;;;;1.73;0.80;;;16.40;72.00;;;;;;5037132;28;20828;-51
2022/11/02 04:09:04;;;;;;;1.70;0.83;;;16.40;72.50;;;;;;5039018;28;20462;-52
2022/11/02 04:14:37;;;;;;;5.83;1.30;;;16.40;72.00;;;;;;5028295;28;20867;-51
2022/11/02 04:20:05;;;;;;;1.97;1.20;;;16.40;72.70;;;;;;5034128;28;20977;-52
2022/11/02 04:25:20;;;;;;;2.60;0.90;;;16.40;72.10;;;;;;5020545;28;20435;-50
2022/11/02 04:28:09;;;;;;;2.60;1.00;;;16.30;72.60;;;;;;5046665;28;20555;-53
2022/11/02 04:30:46;;;;;;;1.43;0.83;;;16.30;72.30;;;;;;5064476;28;20449;-50
2022/11/02 04:33:31;;;;;;;1.70;1.30;;;16.40;72.60;;;;;;5043620;28;20481;-50
2022/11/02 04:36:11;;;;;;;3.13;1.00;;;16.40;72.20;;;;;;5040121;28;20522;-52
2022/11/02 04:38:40;;;;;;;3.23;1.30;;;16.30;72.10;;;;;;5036125;28;20490;-51
2022/11/02 04:44:28;;;;;;;3.53;0.90;;;16.30;72.10;;;;;;5077568;28;20454;-50
2022/11/02 04:47:02;;;;;;;3.93;1.67;;;16.30;72.50;;;;;;5081678;28;20444;-49
2022/11/02 04:49:34;;;;;;;2.67;1.20;;;16.30;72.60;;;;;;5061479;28;20522;-49
2022/11/02 04:52:05;;;;;;;2.57;1.13;;;16.30;72.40;;;;;;5054679;28;20548;-50
2022/11/02 04:54:36;;;;;;;3.20;1.10;;;16.30;72.60;;;;;;5085884;28;20991;-51
2022/11/02 04:57:06;;;;;;;2.70;0.90;;;16.30;72.70;;;;;;5055450;28;20512;-51
2022/11/02 04:59:35;;;;;;;1.50;0.87;;;16.30;72.60;;;;;;5059286;28;20444;-51
2022/11/02 05:02:03;;;;;;;6.13;1.10;;;16.30;72.50;;;;;;5051886;28;20584;-53
2022/11/02 05:04:34;;;;;;;3.07;0.97;;;16.30;72.60;;;;;;5060766;28;20429;-51
2022/11/02 05:07:06;;;;;;;3.47;1.27;;;16.30;72.60;;;;;;5076172;28;20561;-54
2022/11/02 05:09:36;;;;;;;3.43;1.07;;;16.30;72.60;;;;;;5082871;28;20488;-52
2022/11/02 05:12:06;;;;;;;5.53;0.97;;;16.30;72.60;;;;;;5052490;28;20458;-50
2022/11/02 05:14:35;;;;;;;1.63;0.93;;;16.30;72.40;;;;;;5057963;28;20442;-49
2022/11/02 05:17:03;;;;;;;5.40;1.10;;;16.20;72.80;;;;;;5044538;28;21175;-50
2022/11/02 05:19:35;;;;;;;5.50;1.37;;;16.30;72.70;;;;;;5061242;28;20453;-54
2022/11/02 05:22:05;;;;;;;2.60;0.90;;;16.30;72.50;;;;;;5052608;28;20480;-51
2022/11/02 05:24:35;;;;;;;1.90;1.23;;;16.30;72.60;;;;;;5035351;28;20470;-51
2022/11/02 05:27:05;;;;;;;3.40;1.00;;;16.30;72.60;;;;;;5093449;28;20435;-51
2022/11/02 05:29:36;;;;;;;3.50;0.93;;;16.30;72.40;;;;;;5049930;28;20495;-52
2022/11/02 05:32:05;;;;;;;1.70;0.83;;;16.20;72.30;;;;;;5088907;28;20476;-52
2022/11/02 05:34:36;;;;;;;1.40;0.73;;;16.30;72.70;;;;;;5089973;28;20462;-52
2022/11/02 05:37:04;;;;;;;2.73;0.97;;;16.30;72.50;;;;;;5079773;28;21023;-50
2022/11/02 05:39:33;;;;;;;3.70;1.27;;;16.20;72.50;;;;;;5086267;28;20446;-49
2022/11/02 05:42:02;;;;;;;1.80;0.90;;;16.20;72.60;;;;;;5051148;28;20461;-53
2022/11/02 05:44:31;;;;;;;3.73;1.40;;;16.20;72.60;;;;;;5037563;28;20508;-51
2022/11/02 05:47:01;;;;;;;2.60;0.93;;;16.20;72.70;;;;;;5057563;28;20439;-51
2022/11/02 05:49:29;;;;;;;3.10;0.90;;;16.20;72.40;;;;;;5035881;28;20488;-51
2022/11/02 05:51:59;;;;;;;3.10;1.30;;;16.20;72.40;;;;;;5031072;28;20890;-50
2022/11/02 05:54:28;;;;;;;2.50;0.87;;;16.20;72.50;;;;;;5034743;28;20440;-52
2022/11/02 05:56:57;;;;;;;2.53;1.20;;;16.20;72.30;;;;;;5032592;28;20473;-51
2022/11/02 05:59:26;;;;;;;2.10;0.77;;;16.20;72.30;;;;;;5042164;28;20481;-51
2022/11/02 06:01:54;;;;;;;3.80;1.03;;;16.20;72.70;;;;;;5037617;28;20501;-51
2022/11/02 06:04:23;;;;;;;2.40;1.10;;;16.20;72.50;;;;;;5042837;28;20431;-52
2022/11/02 06:06:51;;;;;;;2.10;1.30;;;16.20;72.50;;;;;;5052450;28;20451;-50
2022/11/02 06:09:21;;;;;;;4.20;1.30;;;16.20;72.70;;;;;;5054566;28;20858;-49
2022/11/02 06:11:49;;;;;;;3.30;1.20;;;16.20;72.60;;;;;;5035509;28;20529;-50
2022/11/02 06:14:18;;;;;;;2.63;1.00;;;16.20;72.40;;;;;;5034700;28;20497;-50
2022/11/02 06:16:46;;;;;;;2.17;1.13;;;16.20;72.60;;;;;;5036231;28;20538;-50
2022/11/02 06:19:15;;;;;;;2.20;0.93;;;16.20;72.70;;;;;;5037607;28;20812;-52
2022/11/02 06:21:43;;;;;;;3.33;1.50;;;16.10;72.10;;;;;;5026961;28;20480;-50
2022/11/02 06:24:15;;;;;;;1.50;0.80;;;16.10;72.60;;;;;;5054156;28;20431;-50
2022/11/02 06:26:45;;;;;;;2.83;1.23;;;16.10;72.70;;;;;;5035818;28;20439;-51
2022/11/02 06:29:14;;;;;;;3.57;0.90;;;16.20;72.60;;;;;;5042746;28;20438;-51
2022/11/02 06:31:42;;;;;;;4.60;0.90;;;16.10;72.70;;;;;;5045943;28;20468;-50
2022/11/02 06:34:11;;;;;;;5.63;1.20;;;16.10;72.80;;;;;;5060549;28;20642;-49
2022/11/02 06:36:39;;;;;;;3.43;1.20;;;16.10;72.50;;;;;;5033591;28;20467;-52
2022/11/02 06:39:07;;;;;;;2.63;2.40;;;16.10;72.10;;;;;;5037831;28;20439;-49
2022/11/02 06:41:36;;;;;;;3.83;1.00;;;16.10;72.30;;;;;;5052731;28;20495;-52
2022/11/02 06:44:06;;;;;;;2.33;1.27;;;16.10;72.80;;;;;;5070963;23;20489;-72
2022/11/02 06:46:34;;;;;;;5.07;0.87;;;16.10;72.80;;;;;;5045987;28;20431;-72
2022/11/02 06:49:03;;;;;;;2.60;1.00;;;16.10;72.60;;;;;;5044889;28;20442;-73
2022/11/02 06:51:31;;;;;;;4.60;0.87;;;16.10;72.60;;;;;;5043278;28;20438;-73
2022/11/02 06:54:00;;;;;;;2.67;1.23;;;16.10;72.70;;;;;;5044529;28;20967;-72
2022/11/02 06:56:35;;;;;;;2.13;0.97;;;16.10;72.70;;;;;;5050737;28;20450;-72
2022/11/02 06:59:05;;;;;;;3.67;1.03;;;16.10;72.70;;;;;;5058216;28;20880;-70
2022/11/02 07:01:34;;;;;;;3.27;0.90;;;16.10;72.80;;;;;;5060371;28;20486;-72
2022/11/02 07:04:03;;;;;;;4.40;1.37;;;16.10;73.00;;;;;;5052002;28;20427;-72
2022/11/02 07:06:32;;;;;;;2.40;1.00;;;16.10;72.70;;;;;;5049962;28;20533;-72
2022/11/02 07:09:00;;;;;;;2.80;1.10;;;16.10;72.90;;;;;;5052237;28;20492;-72
2022/11/02 07:11:28;;;;;;;2.77;1.30;;;16.10;72.50;;;;;;5045577;28;20556;-72
2022/11/02 07:13:57;;;;;;;1.83;0.90;;;16.10;72.60;;;;;;5049393;28;20458;-72
2022/11/02 07:16:27;;;;;;;3.23;1.53;;;16.10;73.00;;;;;;5050356;28;20534;-72
2022/11/02 07:18:55;;;;;;;2.40;0.80;;;16.10;73.00;;;;;;5050855;28;20573;-72
2022/11/02 07:21:23;;;;;;;3.37;1.10;;;16.10;72.80;;;;;;5048987;28;20454;-72
2022/11/02 07:23:52;;;;;;;5.70;0.80;;;16.10;73.00;;;;;;5048689;28;20557;-72
2022/11/02 07:26:20;;;;;;;1.93;0.93;;;16.10;73.10;;;;;;5063518;28;20509;-72
2022/11/02 07:28:48;;;;;;;2.20;1.20;;;16.10;73.90;;;;;;5066547;28;20473;-72
2022/11/02 07:31:24;;;;;;;2.43;1.03;;;16.10;72.90;;;;;;5041817;28;20439;-72
2022/11/02 07:33:54;;;;;;;1.40;0.70;;;16.00;72.70;;;;;;5041189;28;20428;-72
2022/11/02 07:36:22;;;;;;;1.73;0.90;;;16.10;73.00;;;;;;5060909;28;20477;-72
2022/11/02 07:38:50;;;;;;;2.60;1.00;;;16.00;72.90;;;;;;5043043;28;20546;-72
2022/11/02 07:41:19;;;;;;;2.50;0.90;;;16.10;72.80;;;;;;5051377;28;20435;-72
2022/11/02 07:43:47;;;;;;;2.63;1.07;;;16.00;72.50;;;;;;5050068;28;20870;-72
2022/11/02 07:46:25;;;;;;;2.60;1.20;;;16.00;72.60;;;;;;5045537;28;21018;-72
2022/11/02 07:48:55;;;;;;;1.80;1.00;;;16.00;72.70;;;;;;5043041;28;20462;-72
2022/11/02 07:51:24;;;;;;;3.70;1.20;;;16.00;72.80;;;;;;5040837;28;21034;-72
2022/11/02 07:53:52;;;;;;;3.60;1.00;;;16.00;72.70;;;;;;5042795;28;20426;-72
2022/11/02 07:56:21;;;;;;;3.50;1.40;;;16.00;72.80;;;;;;5051325;28;20495;-72
2022/11/02 07:58:49;;;;;;;3.43;0.87;;;16.00;72.70;;;;;;5045909;28;20490;-72
2022/11/02 08:01:17;;;;;;;1.77;1.00;;;16.00;72.70;;;;;;5054707;28;20432;-72
2022/11/02 08:03:46;;;;;;;1.50;0.60;;;16.00;72.60;;;;;;5047111;28;20435;-72
2022/11/02 08:06:16;;;;;;;2.73;0.80;;;16.00;72.70;;;;;;5042679;28;20795;-72
2022/11/02 08:08:44;;;;;;;1.10;1.00;;;16.00;73.00;;;;;;5063424;28;20565;-72
2022/11/02 08:11:13;;;;;;;2.47;0.93;;;16.00;72.90;;;;;;5051498;28;20438;-72
2022/11/02 08:13:41;;;;;;;3.37;1.17;;;16.00;73.30;;;;;;5039929;28;20475;-72
2022/11/02 08:16:09;;;;;;;4.50;1.20;;;16.00;73.10;;;;;;5048325;28;20801;-72
2022/11/02 08:18:38;;;;;;;1.57;0.90;;;16.00;73.10;;;;;;5051992;28;20481;-72
2022/11/02 08:21:06;;;;;;;1.83;1.13;;;16.10;73.20;;;;;;5045911;28;20455;-72
2022/11/02 08:23:36;;;;;;;4.67;1.40;;;16.10;73.10;;;;;;5057407;28;20878;-69
2022/11/02 08:26:05;;;;;;;2.40;1.23;;;16.10;73.00;;;;;;5042191;28;20442;-69
2022/11/02 08:28:35;;;;;;;2.13;0.90;;;16.10;73.10;;;;;;5047113;28;20833;-69
2022/11/02 08:31:03;;;;;;;2.13;1.20;;;16.10;73.10;;;;;;5039141;28;20442;-70
2022/11/02 08:33:32;;;;;;;6.30;1.00;;;16.10;73.00;;;;;;5054503;28;20505;-69
2022/11/02 08:36:03;;;;;;;2.63;1.10;;;16.10;73.20;;;;;;5041478;28;20944;-70
2022/11/02 08:38:32;;;;;;;1.60;0.80;;;16.10;73.20;;;;;;5055367;28;20553;-69
2022/11/02 08:41:01;;;;;;;1.13;0.60;;;16.10;73.20;;;;;;5058367;28;20472;-69
2022/11/02 08:43:30;;;;;;;2.30;0.97;;;16.10;73.20;;;;;;5043760;28;20483;-69
2022/11/02 08:45:59;;;;;;;3.10;1.40;;;16.10;73.10;;;;;;5030926;28;20534;-69
2022/11/02 08:48:45;;;;;;;1.43;0.80;;;16.10;73.30;;;;;;5014239;28;20467;-69
2022/11/02 08:51:14;;;;;;;2.03;1.07;;;16.10;73.10;;;;;;5034666;28;20527;-69
2022/11/02 08:53:42;;;;;;;2.20;0.80;;;16.10;73.10;;;;;;5027436;28;20459;-69
2022/11/02 08:56:19;;;;;;;3.00;1.20;;;16.10;73.10;;;;;;5013493;28;20474;-69
2022/11/02 08:58:48;;;;;;;2.70;0.73;;;16.10;73.10;;;;;;5043881;28;20532;-69
2022/11/02 09:01:16;;;;;;;1.73;0.70;;;16.10;73.10;;;;;;5042059;28;20558;-69
2022/11/02 09:03:45;;;;;;;2.00;0.90;;;16.20;73.20;;;;;;5030049;28;20567;-69
2022/11/02 09:06:13;;;;;;;4.10;1.10;;;16.10;73.10;;;;;;5028318;28;20591;-69
2022/11/02 09:08:42;;;;;;;2.90;1.07;;;16.20;73.10;;;;;;5043844;28;21005;-69
2022/11/02 09:11:10;;;;;;;4.57;1.17;;;16.10;73.10;;;;;;5052687;28;20557;-69
2022/11/02 09:13:40;;;;;;;1.60;0.73;;;16.20;73.20;;;;;;5031337;28;20495;-69
2022/11/02 09:16:08;;;;;;;2.80;0.80;;;16.20;73.10;;;;;;5022489;28;20443;-69
2022/11/02 09:18:37;;;;;;;1.73;0.80;;;16.10;73.00;;;;;;5028920;28;21021;-69
2022/11/02 09:24:27;;;;;;;3.13;1.10;;;16.10;70.80;;;;;;5039773;28;20579;-69
2022/11/02 09:26:56;;;;;;;3.17;1.23;;;16.10;71.50;;;;;;5024675;28;20881;-69
2022/11/02 09:29:25;;;;;;;5.07;1.33;;;16.10;71.90;;;;;;5040741;28;21003;-69
2022/11/02 09:31:54;;;;;;;4.93;1.50;;;16.10;71.90;;;;;;5046889;28;20571;-69
2022/11/02 09:34:22;;;;;;;1.67;0.90;;;16.10;72.10;;;;;;5027914;28;20433;-69
2022/11/02 09:36:51;;;;;;;2.40;1.10;;;16.10;72.10;;;;;;5028600;28;20539;-69
2022/11/02 09:39:22;;;;;;;1.77;1.07;;;16.10;72.20;;;;;;5042487;28;20456;-69
2022/11/02 09:42:01;;;;;;;1.67;0.77;;;16.10;72.20;;;;;;5044075;28;20431;-69
2022/11/02 09:44:42;;;;;;;3.10;1.10;;;16.10;72.30;;;;;;5039912;28;20446;-69
2022/11/02 09:47:12;;;;;;;2.63;1.00;;;16.10;72.40;;;;;;5057705;28;20509;-69
2022/11/02 09:50:02;;;;;;;1.80;1.10;;;16.10;72.50;;;;;;5055562;28;20899;-69
2022/11/02 09:55:35;;;;;;;3.40;2.20;;;16.10;72.50;;;;;;5035619;28;20534;-69
2022/11/02 09:58:43;;;;;;;4.03;1.20;;;16.10;71.60;;;;;;5057315;28;21420;-69
2022/11/02 10:01:43;;;;;;;4.10;1.10;;;16.10;72.10;;;;;;5040946;28;20445;-69
2022/11/02 10:04:32;;;;;;;5.97;1.33;;;16.10;72.10;;;;;;5049927;28;20553;-72
2022/11/02 10:07:09;;;;;;;3.50;1.03;;;16.10;72.30;;;;;;5041680;28;20796;-72
2022/11/02 10:09:45;;;;;;;4.73;1.20;;;16.10;72.40;;;;;;5046103;28;20449;-72
2022/11/02 10:12:19;;;;;;;2.70;1.33;;;16.10;72.50;;;;;;5042224;28;20496;-72
2022/11/02 10:14:56;;;;;;;4.20;0.90;;;16.10;72.40;;;;;;5049442;28;20967;-72
2022/11/02 10:17:29;;;;;;;1.53;0.97;;;16.10;72.40;;;;;;5049650;28;20527;-72
2022/11/02 10:20:07;;;;;;;1.47;0.87;;;16.10;72.50;;;;;;5041740;28;20457;-72
2022/11/02 10:22:40;;;;;;;3.30;1.10;;;16.10;72.60;;;;;;5060633;28;20914;-72
2022/11/02 10:25:13;;;;;;;2.43;1.30;;;16.10;72.60;;;;;;5048506;28;20458;-72
2022/11/02 10:27:44;;;;;;;10.00;1.37;;;16.10;72.60;;;;;;5041661;28;20501;-72
2022/11/02 10:30:17;;;;;;;4.00;1.40;;;16.10;71.90;;;;;;5062545;28;20523;-72
2022/11/02 10:32:50;;;;;;;3.50;1.30;;;16.10;71.70;;;;;;5065560;28;20553;-72
2022/11/02 10:35:35;;;;;;;2.00;0.80;;;16.10;71.90;;;;;;5061383;28;20848;-69
2022/11/02 10:38:35;;;;;;;3.23;1.17;;;16.10;72.10;;;;;;5043523;28;20565;-69
2022/11/02 10:41:18;;;;;;;1.70;0.90;;;16.10;72.20;;;;;;5046731;28;21192;-69
2022/11/02 10:44:12;;;;;;;2.57;0.93;;;16.10;72.20;;;;;;5054955;28;20863;-69
2022/11/02 10:46:56;;;;;;;5.57;1.30;;;16.10;72.30;;;;;;5049383;28;20503;-69
2022/11/02 10:49:46;;;;;;;1.53;0.77;;;16.10;72.40;;;;;;5047794;28;20450;-69
2022/11/02 10:52:16;;;;;;;2.00;0.80;;;16.10;73.80;;;;;;5063898;28;20471;-69
2022/11/02 10:54:45;;;;;;;7.47;1.80;;;16.10;72.40;;;;;;5066520;28;20429;-69
2022/11/02 10:57:18;;;;;;;2.77;1.10;;;16.10;72.40;;;;;;5052902;28;20444;-69
2022/11/02 11:00:22;;;;;;;1.70;0.80;;;16.10;72.40;;;;;;5070265;28;20527;-69
2022/11/02 11:03:04;;;;;;;3.17;1.20;;;16.10;72.50;;;;;;5042084;28;20868;-69
2022/11/02 11:05:34;;;;;;;3.93;0.70;;;16.10;72.20;;;;;;5070222;28;20430;-69
2022/11/02 11:08:03;;;;;;;4.70;1.20;;;16.10;72.40;;;;;;5052242;28;20470;-69
2022/11/02 11:10:37;;;;;;;2.93;1.00;;;16.10;72.20;;;;;;5052102;28;20446;-69
2022/11/02 11:13:07;;;;;;;2.73;0.97;;;16.10;72.20;;;;;;5067576;28;20481;-69
2022/11/02 11:15:55;;;;;;;2.00;0.70;;;16.10;72.40;;;;;;5051503;28;20801;-69
2022/11/02 11:18:25;;;;;;;2.63;1.27;;;16.10;72.30;;;;;;5051984;28;20466;-69
2022/11/02 11:21:13;;;;;;;1.50;0.80;;;16.10;72.40;;;;;;5044069;28;20854;-69
2022/11/02 11:23:41;;;;;;;2.20;0.80;;;16.10;72.40;;;;;;5050720;28;20470;-69
2022/11/02 11:26:27;;;;;;;3.00;0.87;;;16.10;72.10;;;;;;5058829;28;20435;-69
2022/11/02 11:28:56;;;;;;;3.53;1.00;;;16.10;72.30;;;;;;5041533;28;21005;-72
2022/11/02 11:31:25;;;;;;;1.70;0.70;;;16.10;72.30;;;;;;5051710;28;21411;-69
2022/11/02 11:33:57;;;;;;;1.87;0.87;;;16.10;72.20;;;;;;5059461;28;20423;-69
2022/11/02 11:36:27;;;;;;;7.63;1.50;;;16.10;72.40;;;;;;5023141;28;20482;-69
2022/11/02 11:38:59;;;;;;;4.93;1.30;;;16.00;72.50;;;;;;5055149;28;20451;-69
2022/11/02 11:41:28;;;;;;;2.17;1.17;;;16.10;70.60;;;;;;5050913;28;20503;-69
2022/11/02 11:44:23;;;;;;;2.43;0.90;;;16.00;71.10;;;;;;5048527;28;21040;-69
2022/11/02 11:47:19;;;;;;;2.90;1.50;;;16.00;71.20;;;;;;5049198;28;20442;-69
2022/11/02 11:50:09;;;;;;;6.77;1.33;;;16.00;71.20;;;;;;5031718;28;20473;-69
2022/11/02 11:53:16;;;;;;;1.13;0.80;;;16.00;71.60;;;;;;5042811;28;20469;-72
2022/11/02 11:55:47;;;;;;;2.33;1.37;;;16.10;71.60;;;;;;5065727;28;20534;-72
2022/11/02 11:58:20;;;;;;;4.40;1.00;;;16.10;71.70;;;;;;5049871;28;20470;-72
2022/11/02 12:01:04;;;;;;;2.50;1.07;;;16.00;71.60;;;;;;5040342;28;21022;-72
2022/11/02 12:03:54;;;;;;;1.93;1.20;;;16.10;71.60;;;;;;5042866;28;20475;-72
2022/11/02 12:06:32;;;;;;;2.63;0.90;;;16.00;71.50;;;;;;5047892;28;20457;-72
2022/11/02 12:09:11;;;;;;;2.13;0.90;;;16.10;71.60;;;;;;5059873;28;20453;-72
2022/11/02 12:11:53;;;;;;;3.63;0.80;;;16.10;71.50;;;;;;5051877;28;20438;-72
2022/11/02 12:14:40;;;;;;;3.20;1.30;;;16.10;71.60;;;;;;5066113;28;20933;-72
2022/11/02 12:17:34;;;;;;;4.37;0.97;;;16.00;71.10;;;;;;5057036;28;20467;-72
2022/11/02 12:20:30;;;;;;;5.00;1.33;;;16.10;71.20;;;;;;5048201;28;20467;-72
2022/11/02 12:23:08;;;;;;;2.43;0.90;;;16.10;71.30;;;;;;5059010;28;20561;-72
2022/11/02 12:25:52;;;;;;;2.40;1.10;;;16.00;71.30;;;;;;5050574;28;20903;-72
2022/11/02 12:29:21;;;;;;;1.63;0.93;;;16.10;71.30;;;;;;5048057;28;20474;-72
2022/11/02 12:32:20;;;;;;;;;;;;;;;;;;;;;
2022/11/02 12:35:57;;;;;;;2.90;1.17;;;16.10;71.20;;;;;;5066534;28;20954;-72
2022/11/02 12:39:08;;;;;;;2.20;1.30;;;16.10;71.40;;;;;;5063298;28;20961;-72
2022/11/02 12:42:37;;;;;;;0.97;0.80;;;16.10;70.00;;;;;;5053978;28;20714;-72
2022/11/02 12:45:23;;;;;;;4.47;1.43;;;16.10;71.20;;;;;;5165916;23;20486;-70
2022/11/02 12:47:57;;;;;;;1.30;0.80;;;16.10;70.70;;;;;;5047086;28;20506;-69
2022/11/02 12:50:35;;;;;;;0.90;0.60;;;16.10;71.10;;;;;;5064893;28;20961;-69
2022/11/02 12:53:21;;;;;;;3.00;1.07;;;16.10;71.20;;;;;;5049881;28;20518;-69
2022/11/02 12:55:54;;;;;;;3.13;0.77;;;16.10;71.50;;;;;;5064813;28;20802;-68
2022/11/02 12:58:28;;;;;;;2.30;0.87;;;16.10;71.50;;;;;;5059525;28;20482;-69
2022/11/02 13:01:02;;;;;;;1.63;1.10;;;16.10;71.60;;;;;;5066809;28;20450;-68
2022/11/02 13:03:42;;;;;;;2.10;0.80;;;16.10;71.70;;;;;;5050592;28;20501;-69
2022/11/02 13:06:14;;;;;;;3.17;0.97;;;16.10;71.80;;;;;;5043675;28;20438;-69
2022/11/02 13:08:49;;;;;;;2.87;0.60;;;16.10;71.70;;;;;;5042035;28;20496;-69
2022/11/02 13:11:22;;;;;;;2.47;1.30;;;16.10;71.80;;;;;;5067821;28;20979;-68
2022/11/02 13:13:55;;;;;;;3.73;1.60;;;16.10;71.40;;;;;;5062775;28;20810;-70
2022/11/02 13:16:33;;;;;;;6.60;1.43;;;16.10;69.70;;;;;;5067267;28;20454;-68
2022/11/02 13:19:03;;;;;;;2.63;1.07;;;16.10;68.20;;;;;;5044060;28;20952;-71
2022/11/02 13:21:37;;;;;;;5.87;1.47;;;16.10;68.30;;;;;;5064658;28;21352;-74
2022/11/02 13:24:16;;;;;;;1.30;0.80;;;16.10;68.30;;;;;;5068101;28;20532;-74
2022/11/02 13:26:48;;;;;;;3.83;1.10;;;16.10;69.30;;;;;;5038222;28;20869;-72
2022/11/02 13:29:37;;;;;;;3.10;1.20;;;16.10;69.60;;;;;;5048571;28;20520;-72
2022/11/02 13:32:13;;;;;;;2.40;0.80;;;16.10;69.80;;;;;;5064091;28;20524;-73
2022/11/02 13:34:44;;;;;;;5.13;2.30;;;16.10;70.10;;;;;;5060226;28;20442;-74
2022/11/02 13:37:18;;;;;;;7.83;1.67;;;16.10;69.30;;;;;;5063420;28;20470;-73
2022/11/02 13:39:50;;;;;;;3.07;1.30;;;16.10;69.30;;;;;;5067786;28;20887;-73
2022/11/02 13:42:49;;;;;;;5.90;2.00;;;16.10;69.20;;;;;;5049255;28;20462;-72
2022/11/02 13:45:44;;;;;;;3.10;1.50;;;16.10;69.20;;;;;;5057958;28;20467;-74